Time;durP1;ratioP1;P1;durP2;ratioP2;P2;SDS_P1;SDS_P2;PMS_P1;PMS_P2;Temp;Humidity;BMP_temperature;BMP_pressure;BME280_temperature;BME280_humidity;BME280_pressure;Samples;Min_cycle;Max_cycle;Signal;HPM_P1;HPM_P2
2021/06/13 00:02:09;;;;;;;4.78;1.55;;;15.40;83.40;;;;;;5050543;28;20060;-81
2021/06/13 00:04:34;;;;;;;5.68;1.45;;;15.40;83.40;;;;;;5048975;28;20037;-81
2021/06/13 00:07:00;;;;;;;2.63;1.17;;;15.40;83.50;;;;;;5036838;28;20052;-81
2021/06/13 00:09:25;;;;;;;4.40;1.42;;;15.40;84.00;;;;;;5051109;28;20320;-81
2021/06/13 00:11:51;;;;;;;4.90;1.52;;;15.30;84.10;;;;;;5053169;28;20079;-83
2021/06/13 00:14:18;;;;;;;3.00;1.30;;;15.30;84.30;;;;;;5043316;28;20071;-81
2021/06/13 00:16:44;;;;;;;4.60;1.30;;;15.30;84.40;;;;;;5045001;28;20140;-82
2021/06/13 00:19:10;;;;;;;6.35;1.50;;;15.30;84.90;;;;;;5033548;28;20048;-81
2021/06/13 00:21:36;;;;;;;5.07;1.55;;;15.20;85.10;;;;;;5044964;28;20057;-80
2021/06/13 00:24:01;;;;;;;5.75;1.30;;;15.20;85.00;;;;;;5040730;28;20102;-81
2021/06/13 00:26:27;;;;;;;5.75;1.42;;;15.20;85.20;;;;;;5054401;28;20497;-82
2021/06/13 00:28:53;;;;;;;4.43;1.60;;;15.20;85.30;;;;;;5036552;28;20034;-81
2021/06/13 00:31:18;;;;;;;6.45;1.42;;;15.20;86.50;;;;;;5047594;28;20599;-82
2021/06/13 00:33:44;;;;;;;6.28;1.40;;;15.20;86.00;;;;;;5050992;28;20037;-81
2021/06/13 00:36:10;;;;;;;5.82;1.63;;;15.20;86.20;;;;;;5041115;28;20037;-82
2021/06/13 00:38:35;;;;;;;7.20;1.88;;;15.10;85.10;;;;;;5039850;28;20076;-80
2021/06/13 00:41:01;;;;;;;5.95;1.48;;;15.10;85.10;;;;;;5041771;28;20072;-82
2021/06/13 00:43:27;;;;;;;3.55;1.35;;;15.10;85.80;;;;;;5051474;28;20041;-80
2021/06/13 00:45:53;;;;;;;6.88;1.80;;;15.10;85.60;;;;;;5050784;28;20041;-81
2021/06/13 00:48:18;;;;;;;4.90;1.55;;;15.10;86.00;;;;;;5043234;28;20127;-80
2021/06/13 00:50:48;;;;;;;4.82;1.50;;;15.00;86.10;;;;;;5053371;28;20120;-82
2021/06/13 00:53:14;;;;;;;5.22;1.42;;;15.10;86.30;;;;;;5052446;28;20120;-82
2021/06/13 00:55:40;;;;;;;5.38;1.77;;;15.00;86.40;;;;;;5045054;28;20453;-82
2021/06/13 00:58:06;;;;;;;5.95;2.10;;;15.00;86.60;;;;;;5039438;28;20124;-82
2021/06/13 01:00:34;;;;;;;5.30;1.52;;;15.00;86.60;;;;;;5050491;28;20037;-81
2021/06/13 01:03:00;;;;;;;1.58;1.13;;;15.00;86.60;;;;;;5058590;28;20258;-81
2021/06/13 01:05:26;;;;;;;5.40;1.67;;;14.90;87.00;;;;;;5055923;28;20098;-81
2021/06/13 01:08:07;;;;;;;7.07;1.30;;;14.90;86.60;;;;;;5041035;28;20464;-81
2021/06/13 01:11:13;;;;;;;5.32;1.50;;;14.80;86.60;;;;;;5043188;28;20148;-81
2021/06/13 01:13:53;;;;;;;7.13;1.50;;;14.70;87.10;;;;;;5039121;28;20037;-82
2021/06/13 01:16:33;;;;;;;5.57;1.58;;;14.70;87.10;;;;;;5044439;28;20056;-81
2021/06/13 01:19:21;;;;;;;4.60;1.60;;;14.60;87.60;;;;;;5052802;28;20211;-81
2021/06/13 01:22:08;;;;;;;6.90;2.17;;;14.60;87.50;;;;;;5043062;28;20077;-80
2021/06/13 01:24:54;;;;;;;4.57;1.67;;;14.60;87.00;;;;;;5046486;28;20428;-80
2021/06/13 01:27:41;;;;;;;3.95;1.48;;;14.60;87.40;;;;;;5048795;28;20041;-81
2021/06/13 01:30:08;;;;;;;6.63;1.67;;;14.50;87.70;;;;;;5038649;28;20047;-82
2021/06/13 01:32:35;;;;;;;5.78;1.60;;;14.50;87.40;;;;;;5048108;28;20040;-82
2021/06/13 01:35:05;;;;;;;4.15;1.50;;;14.60;87.20;;;;;;5043851;28;20045;-83
2021/06/13 01:37:35;;;;;;;3.28;1.20;;;14.50;87.80;;;;;;5045934;28;20032;-82
2021/06/13 01:40:12;;;;;;;2.58;1.10;;;14.40;88.10;;;;;;5054981;28;20033;-83
2021/06/13 01:42:41;;;;;;;8.15;1.70;;;14.40;88.80;;;;;;5054245;28;20532;-81
2021/06/13 01:45:13;;;;;;;7.75;1.55;;;14.30;89.40;;;;;;5047590;28;20052;-83
2021/06/13 01:47:40;;;;;;;6.25;1.58;;;14.30;89.40;;;;;;5047485;28;20053;-82
2021/06/13 01:50:07;;;;;;;4.85;1.70;;;14.30;89.50;;;;;;5042746;28;20041;-83
2021/06/13 01:52:35;;;;;;;9.23;1.90;;;14.30;89.70;;;;;;5045815;28;20319;-83
2021/06/13 01:55:01;;;;;;;8.80;1.95;;;14.20;90.00;;;;;;5049633;28;20036;-83
2021/06/13 01:57:27;;;;;;;5.97;1.88;;;14.30;90.00;;;;;;5046849;28;20075;-83
2021/06/13 01:59:55;;;;;;;3.10;1.60;;;14.20;90.00;;;;;;5049533;28;20037;-82
2021/06/13 02:02:22;;;;;;;4.70;2.20;;;14.30;90.00;;;;;;5047881;28;20044;-84
2021/06/13 02:04:49;;;;;;;4.35;1.70;;;14.20;90.10;;;;;;5043032;28;20049;-81
2021/06/13 02:07:16;;;;;;;8.68;1.80;;;14.20;90.20;;;;;;5047330;28;20100;-81
2021/06/13 02:09:45;;;;;;;7.20;1.85;;;14.10;90.30;;;;;;5046743;28;20459;-81
2021/06/13 02:12:10;;;;;;;6.32;2.10;;;14.10;90.40;;;;;;5048872;28;20436;-82
2021/06/13 02:14:38;;;;;;;6.32;1.75;;;14.00;90.40;;;;;;5043881;28;20052;-81
2021/06/13 02:17:06;;;;;;;7.18;2.03;;;14.00;90.50;;;;;;5043959;28;20100;-81
2021/06/13 02:19:33;;;;;;;4.95;1.92;;;14.00;90.60;;;;;;5049113;28;20189;-80
2021/06/13 02:22:00;;;;;;;4.78;2.10;;;13.90;90.70;;;;;;5040265;28;20048;-80
2021/06/13 02:24:35;;;;;;;2.80;1.40;;;13.90;90.80;;;;;;5045750;28;20825;-81
2021/06/13 02:27:03;;;;;;;5.75;1.73;;;13.90;90.80;;;;;;5044898;28;20090;-81
2021/06/13 02:29:30;;;;;;;9.23;1.90;;;13.90;91.00;;;;;;5044550;28;20627;-81
2021/06/13 02:31:57;;;;;;;9.15;2.13;;;13.90;91.10;;;;;;5044119;28;20060;-80
2021/06/13 02:34:25;;;;;;;3.30;1.98;;;13.90;91.00;;;;;;5042659;28;20075;-80
2021/06/13 02:36:53;;;;;;;4.88;1.73;;;13.90;90.90;;;;;;5046909;28;20056;-80
2021/06/13 02:39:20;;;;;;;6.40;2.13;;;13.90;90.80;;;;;;5043954;28;20056;-81
2021/06/13 02:41:47;;;;;;;4.40;1.50;;;13.90;90.90;;;;;;5049351;28;20045;-80
2021/06/13 02:44:12;;;;;;;5.65;1.60;;;13.90;90.90;;;;;;5046235;28;20041;-81
2021/06/13 02:46:38;;;;;;;7.95;2.03;;;14.00;90.90;;;;;;5047309;28;20041;-81
2021/06/13 02:49:08;;;;;;;8.88;2.17;;;14.00;90.60;;;;;;5051628;28;20034;-81
2021/06/13 02:51:39;;;;;;;7.15;2.90;;;14.00;90.80;;;;;;5045906;28;20124;-81
2021/06/13 02:54:09;;;;;;;3.83;2.05;;;14.00;90.80;;;;;;5043071;28;20033;-81
2021/06/13 02:56:42;;;;;;;4.25;1.65;;;14.10;91.00;;;;;;5045550;28;20045;-81
2021/06/13 02:59:19;;;;;;;6.32;1.83;;;14.10;90.80;;;;;;5050906;28;20311;-81
2021/06/13 03:01:48;;;;;;;9.55;1.88;;;14.10;90.80;;;;;;5043792;28;20032;-82
2021/06/13 03:04:17;;;;;;;5.25;1.90;;;14.00;90.90;;;;;;5044176;28;20075;-81
2021/06/13 03:06:46;;;;;;;10.25;2.63;;;13.90;90.90;;;;;;5070653;28;20052;-82
2021/06/13 03:09:11;;;;;;;7.68;2.35;;;13.90;91.00;;;;;;5043054;28;20116;-83
2021/06/13 03:11:37;;;;;;;7.80;2.28;;;13.90;91.10;;;;;;5042814;28;20140;-82
2021/06/13 03:14:06;;;;;;;5.80;2.00;;;13.90;91.20;;;;;;5042300;28;20353;-82
2021/06/13 03:16:33;;;;;;;6.13;2.03;;;13.90;91.10;;;;;;5046347;28;20064;-83
2021/06/13 03:18:58;;;;;;;8.55;1.95;;;13.90;91.20;;;;;;5040148;28;20041;-82
2021/06/13 03:21:24;;;;;;;4.70;1.90;;;13.90;91.40;;;;;;5045541;28;20037;-82
2021/06/13 03:23:51;;;;;;;7.50;2.20;;;13.90;91.40;;;;;;5043437;28;20037;-82
2021/06/13 03:26:18;;;;;;;9.73;2.15;;;13.90;91.20;;;;;;5043770;28;20064;-83
2021/06/13 03:28:47;;;;;;;4.38;1.67;;;13.90;91.10;;;;;;5045015;28;20045;-80
2021/06/13 03:31:14;;;;;;;8.02;2.30;;;13.90;91.20;;;;;;5049465;28;20047;-82
2021/06/13 03:33:41;;;;;;;5.80;2.33;;;13.90;90.90;;;;;;5046341;28;20037;-82
2021/06/13 03:36:07;;;;;;;7.00;1.92;;;13.90;91.00;;;;;;5045204;28;20076;-83
2021/06/13 03:38:35;;;;;;;7.35;1.77;;;13.80;90.60;;;;;;5045147;28;20056;-82
2021/06/13 03:41:02;;;;;;;8.07;2.13;;;13.80;90.70;;;;;;5038523;28;20483;-82
2021/06/13 03:43:28;;;;;;;5.35;2.00;;;13.80;90.90;;;;;;5042408;28;20629;-83
2021/06/13 03:45:53;;;;;;;4.35;2.28;;;13.70;90.80;;;;;;5046697;28;20080;-81
2021/06/13 03:48:22;;;;;;;4.72;2.05;;;13.70;90.80;;;;;;5054263;28;20118;-81
2021/06/13 03:50:48;;;;;;;11.23;2.10;;;13.60;91.00;;;;;;5049536;28;20041;-81
2021/06/13 03:53:14;;;;;;;7.95;2.40;;;13.50;91.20;;;;;;5048829;28;20037;-82
2021/06/13 03:55:40;;;;;;;5.05;2.15;;;13.50;91.00;;;;;;5047041;28;20045;-82
2021/06/13 03:58:08;;;;;;;12.15;2.35;;;13.50;91.10;;;;;;5042449;28;20102;-82
2021/06/13 04:00:36;;;;;;;8.38;2.28;;;13.40;91.10;;;;;;5048223;28;20047;-82
2021/06/13 04:03:04;;;;;;;7.55;2.22;;;13.50;91.00;;;;;;5041064;28;20041;-83
2021/06/13 04:05:30;;;;;;;9.27;3.47;;;13.50;90.90;;;;;;5052272;28;20053;-81
2021/06/13 04:07:56;;;;;;;4.50;2.00;;;13.50;91.20;;;;;;5047506;28;20102;-82
2021/06/13 04:10:22;;;;;;;5.78;2.17;;;13.50;91.10;;;;;;5048618;28;20071;-82
2021/06/13 04:12:49;;;;;;;8.63;2.33;;;13.50;91.20;;;;;;5042206;28;20068;-81
2021/06/13 04:15:16;;;;;;;5.75;1.80;;;13.50;91.10;;;;;;5038547;28;20421;-81
2021/06/13 04:17:43;;;;;;;7.13;2.60;;;13.50;91.10;;;;;;5042005;28;20124;-81
2021/06/13 04:20:11;;;;;;;5.32;1.88;;;13.50;91.10;;;;;;5044812;28;20041;-82
2021/06/13 04:22:39;;;;;;;6.60;2.30;;;13.50;91.20;;;;;;5043536;28;20053;-81
2021/06/13 04:25:07;;;;;;;10.32;2.15;;;13.50;91.10;;;;;;5047083;28;20155;-81
2021/06/13 04:27:35;;;;;;;4.63;2.17;;;13.50;91.30;;;;;;5049973;28;20098;-81
2021/06/13 04:30:03;;;;;;;9.32;2.63;;;13.50;91.30;;;;;;5044874;28;20090;-82
2021/06/13 04:32:29;;;;;;;4.50;1.88;;;13.50;91.30;;;;;;5046793;28;20084;-82
2021/06/13 04:34:54;;;;;;;7.38;2.90;;;13.50;91.10;;;;;;5038050;28;20041;-82
2021/06/13 04:37:20;;;;;;;8.30;3.67;;;13.50;91.20;;;;;;5044807;28;20041;-82
2021/06/13 04:39:46;;;;;;;8.40;2.45;;;13.60;91.20;;;;;;5044462;28;20045;-82
2021/06/13 04:42:11;;;;;;;9.48;2.38;;;13.60;91.00;;;;;;5042020;28;20101;-83
2021/06/13 04:44:37;;;;;;;9.32;2.25;;;13.60;91.00;;;;;;5047029;28;20068;-82
2021/06/13 04:47:04;;;;;;;9.90;2.38;;;13.60;91.10;;;;;;5046732;28;20049;-81
2021/06/13 04:49:30;;;;;;;10.90;2.95;;;13.60;91.20;;;;;;5047900;28;20041;-81
2021/06/13 04:51:57;;;;;;;6.75;2.25;;;13.60;91.00;;;;;;5046827;28;20057;-81
2021/06/13 04:54:41;;;;;;;11.43;2.88;;;13.60;91.00;;;;;;5053481;28;20033;-82
2021/06/13 04:57:17;;;;;;;7.30;2.47;;;13.70;91.00;;;;;;5051421;28;20037;-81
2021/06/13 04:59:43;;;;;;;7.40;2.03;;;13.90;90.90;;;;;;5047700;28;20041;-82
2021/06/13 05:02:08;;;;;;;11.10;2.60;;;14.00;90.50;;;;;;5056474;28;20033;-81
2021/06/13 05:04:34;;;;;;;7.78;2.65;;;14.10;90.60;;;;;;5053675;28;20049;-82
2021/06/13 05:07:03;;;;;;;6.45;2.63;;;14.20;90.60;;;;;;5043203;28;20049;-82
2021/06/13 05:09:30;;;;;;;3.83;2.25;;;14.30;90.20;;;;;;5047099;28;20037;-82
2021/06/13 05:11:55;;;;;;;7.07;2.53;;;14.30;90.00;;;;;;5053490;28;20061;-82
2021/06/13 05:14:21;;;;;;;9.90;2.47;;;14.40;90.00;;;;;;5050023;28;20243;-82
2021/06/13 05:16:46;;;;;;;6.70;2.63;;;14.50;90.20;;;;;;5052722;28;20060;-83
2021/06/13 05:19:12;;;;;;;8.32;2.55;;;14.50;89.50;;;;;;5053650;28;20309;-82
2021/06/13 05:21:38;;;;;;;14.68;2.70;;;14.50;89.70;;;;;;5051533;28;20078;-82
2021/06/13 05:24:04;;;;;;;6.47;2.53;;;14.60;89.30;;;;;;5047944;28;20120;-83
2021/06/13 05:26:30;;;;;;;7.65;2.95;;;14.70;88.70;;;;;;5042291;28;20195;-82
2021/06/13 05:28:56;;;;;;;11.45;2.50;;;14.70;88.80;;;;;;5055992;28;20041;-82
2021/06/13 05:31:22;;;;;;;11.57;3.05;;;14.70;89.40;;;;;;5046164;28;20651;-82
2021/06/13 05:33:48;;;;;;;10.07;2.50;;;14.60;89.90;;;;;;5046051;28;20041;-83
2021/06/13 05:36:13;;;;;;;13.85;2.83;;;14.70;89.80;;;;;;5049893;28;20131;-81
2021/06/13 05:38:41;;;;;;;10.50;2.30;;;14.80;89.20;;;;;;5048772;28;20045;-82
2021/06/13 05:41:07;;;;;;;4.78;2.25;;;14.80;88.00;;;;;;5050570;28;20040;-82
2021/06/13 05:43:33;;;;;;;10.38;2.47;;;14.80;88.90;;;;;;5049407;28;20128;-81
2021/06/13 05:46:01;;;;;;;7.75;2.53;;;14.90;88.50;;;;;;5051535;28;20116;-82
2021/06/13 05:48:27;;;;;;;5.60;2.50;;;15.00;89.20;;;;;;5048796;28;20049;-83
2021/06/13 05:50:52;;;;;;;8.48;3.15;;;15.00;87.60;;;;;;5047697;28;20029;-82
2021/06/13 05:53:18;;;;;;;9.70;2.70;;;15.00;88.00;;;;;;5052501;28;20427;-82
2021/06/13 05:55:43;;;;;;;5.82;2.30;;;15.00;87.10;;;;;;5040401;28;20041;-81
2021/06/13 05:58:09;;;;;;;6.15;2.00;;;15.00;87.70;;;;;;5040325;28;20455;-83
2021/06/13 06:00:36;;;;;;;6.05;2.40;;;15.10;87.20;;;;;;5041960;28;20358;-81
2021/06/13 06:03:03;;;;;;;8.75;2.17;;;15.00;87.60;;;;;;5042395;28;20407;-81
2021/06/13 06:05:30;;;;;;;7.63;2.05;;;15.10;88.10;;;;;;5042707;28;20034;-82
2021/06/13 06:07:56;;;;;;;11.00;2.83;;;15.20;87.70;;;;;;5049876;28;20132;-81
2021/06/13 06:10:24;;;;;;;7.93;2.85;;;15.20;88.00;;;;;;5047935;28;21802;-81
2021/06/13 06:12:50;;;;;;;8.23;3.28;;;15.30;86.10;;;;;;5043184;28;20033;-80
2021/06/13 06:15:20;;;;;;;8.80;2.83;;;15.20;85.40;;;;;;5055937;28;20053;-82
2021/06/13 06:17:46;;;;;;;9.02;2.35;;;15.20;85.70;;;;;;5049925;28;20037;-81
2021/06/13 06:20:13;;;;;;;7.70;2.25;;;15.30;86.20;;;;;;5055240;28;20087;-80
2021/06/13 06:22:39;;;;;;;7.50;1.98;;;15.30;85.80;;;;;;5038155;28;20433;-80
2021/06/13 06:25:07;;;;;;;8.23;2.30;;;15.30;85.50;;;;;;5051957;28;20072;-82
2021/06/13 06:27:33;;;;;;;8.35;2.63;;;15.30;85.90;;;;;;5048484;28;20048;-81
2021/06/13 06:29:59;;;;;;;7.53;2.17;;;15.30;86.20;;;;;;5053386;28;20032;-80
2021/06/13 06:32:25;;;;;;;15.80;2.45;;;15.30;85.70;;;;;;5056689;28;20072;-80
2021/06/13 06:34:50;;;;;;;6.88;2.33;;;15.30;86.10;;;;;;5046931;28;20037;-81
2021/06/13 06:37:16;;;;;;;6.63;2.15;;;15.40;86.10;;;;;;5049521;28;20651;-81
2021/06/13 06:39:42;;;;;;;8.68;2.38;;;15.50;85.30;;;;;;5041450;28;20128;-80
2021/06/13 06:42:07;;;;;;;5.70;2.33;;;15.50;85.80;;;;;;5042462;28;20041;-81
2021/06/13 06:44:33;;;;;;;6.20;2.00;;;15.60;84.00;;;;;;5050883;28;20036;-81
2021/06/13 06:47:04;;;;;;;8.95;2.25;;;15.60;84.00;;;;;;5057826;28;20048;-82
2021/06/13 06:49:30;;;;;;;5.28;1.98;;;15.60;83.00;;;;;;5051104;28;20037;-82
2021/06/13 06:51:57;;;;;;;6.95;2.42;;;15.60;83.50;;;;;;5045889;28;20036;-81
2021/06/13 06:54:23;;;;;;;10.98;3.40;;;15.70;84.40;;;;;;5048395;28;20091;-81
2021/06/13 06:56:48;;;;;;;8.50;2.63;;;15.80;83.60;;;;;;5046011;28;20092;-81
2021/06/13 06:59:14;;;;;;;8.80;2.50;;;15.90;83.20;;;;;;5047526;28;20041;-80
2021/06/13 07:01:39;;;;;;;7.57;1.88;;;15.90;82.60;;;;;;5042548;28;20045;-81
2021/06/13 07:04:05;;;;;;;6.50;1.85;;;16.00;82.70;;;;;;5040669;28;20409;-80
2021/06/13 07:06:31;;;;;;;10.88;2.10;;;16.00;82.50;;;;;;5050166;28;20397;-81
2021/06/13 07:08:57;;;;;;;7.32;1.98;;;16.00;82.40;;;;;;5049690;28;20051;-82
2021/06/13 07:11:22;;;;;;;6.20;2.90;;;16.00;81.90;;;;;;5051991;28;20037;-82
2021/06/13 07:13:48;;;;;;;6.45;2.38;;;16.10;83.10;;;;;;5062318;28;20036;-82
2021/06/13 07:16:13;;;;;;;8.82;2.65;;;16.00;81.80;;;;;;5067100;28;20085;-81
2021/06/13 07:18:39;;;;;;;6.15;2.25;;;16.00;81.90;;;;;;5039399;28;20037;-80
2021/06/13 07:21:05;;;;;;;7.30;1.95;;;15.90;82.50;;;;;;5047859;28;20048;-81
2021/06/13 07:23:31;;;;;;;4.78;1.60;;;15.80;83.50;;;;;;5037658;28;20033;-81
2021/06/13 07:25:56;;;;;;;3.92;2.05;;;15.90;83.40;;;;;;5042786;28;20447;-81
2021/06/13 07:28:22;;;;;;;9.07;2.75;;;15.80;83.20;;;;;;5049214;28;20064;-81
2021/06/13 07:30:47;;;;;;;10.80;2.85;;;15.80;83.80;;;;;;5048338;28;20367;-80
2021/06/13 07:33:13;;;;;;;6.82;2.67;;;15.70;84.50;;;;;;5041965;28;20115;-81
2021/06/13 07:35:38;;;;;;;9.57;3.35;;;15.60;84.80;;;;;;5047909;28;20315;-82
2021/06/13 07:38:04;;;;;;;6.13;2.33;;;15.70;83.60;;;;;;5040123;28;20041;-81
2021/06/13 07:40:31;;;;;;;7.93;2.50;;;15.80;84.50;;;;;;5043110;28;20393;-80
2021/06/13 07:42:57;;;;;;;12.07;2.47;;;15.80;83.80;;;;;;5038593;28;20041;-81
2021/06/13 07:45:23;;;;;;;8.50;2.28;;;16.00;83.20;;;;;;5040764;28;20040;-81
2021/06/13 07:47:49;;;;;;;6.65;2.20;;;16.10;84.30;;;;;;5038218;28;20456;-81
2021/06/13 07:50:17;;;;;;;6.53;1.88;;;16.30;84.00;;;;;;5043599;28;20103;-81
2021/06/13 07:52:43;;;;;;;9.80;2.33;;;16.40;81.00;;;;;;5046008;28;20044;-81
2021/06/13 07:55:11;;;;;;;4.75;2.78;;;16.50;81.90;;;;;;5045291;28;20072;-82
2021/06/13 07:57:36;;;;;;;6.28;2.45;;;16.70;80.70;;;;;;5040042;28;20046;-81
2021/06/13 08:00:04;;;;;;;11.00;2.00;;;16.70;79.20;;;;;;5055160;28;20037;-80
2021/06/13 08:02:30;;;;;;;10.27;1.92;;;16.70;78.20;;;;;;5050251;28;20037;-80
2021/06/13 08:04:59;;;;;;;5.00;2.30;;;16.80;79.00;;;;;;5036944;28;20049;-81
2021/06/13 08:07:25;;;;;;;6.25;2.17;;;16.80;79.00;;;;;;5056612;28;20032;-80
2021/06/13 08:09:50;;;;;;;7.95;2.08;;;16.90;79.30;;;;;;5055199;28;20037;-81
2021/06/13 08:12:16;;;;;;;6.63;1.77;;;17.00;78.20;;;;;;5053801;28;20498;-81
2021/06/13 08:14:42;;;;;;;7.13;1.55;;;17.10;77.40;;;;;;5045100;28;20037;-83
2021/06/13 08:17:07;;;;;;;10.43;1.65;;;17.20;75.40;;;;;;5035801;28;20118;-83
2021/06/13 08:19:33;;;;;;;5.32;1.63;;;17.20;75.20;;;;;;5042206;28;20037;-80
2021/06/13 08:21:58;;;;;;;5.20;1.85;;;17.30;76.50;;;;;;5043358;28;20344;-80
2021/06/13 08:24:24;;;;;;;6.53;1.77;;;17.30;75.60;;;;;;5040449;28;20458;-80
2021/06/13 08:26:49;;;;;;;5.25;1.50;;;17.20;74.30;;;;;;5096426;28;20151;-81
2021/06/13 08:29:15;;;;;;;5.60;1.70;;;17.10;74.10;;;;;;5062014;28;20037;-82
2021/06/13 08:31:41;;;;;;;4.40;1.23;;;17.00;75.10;;;;;;5044664;28;20453;-81
2021/06/13 08:34:06;;;;;;;4.35;1.58;;;16.80;75.70;;;;;;5053397;28;20040;-81
2021/06/13 08:36:32;;;;;;;3.92;1.65;;;16.70;76.10;;;;;;5055248;28;20047;-81
2021/06/13 08:38:58;;;;;;;4.43;1.83;;;16.60;76.60;;;;;;5044190;28;20040;-81
2021/06/13 08:41:24;;;;;;;5.50;1.83;;;16.70;76.80;;;;;;5053305;28;20490;-81
2021/06/13 08:43:51;;;;;;;8.13;2.72;;;16.60;76.10;;;;;;5039301;28;20080;-81
2021/06/13 08:46:17;;;;;;;6.50;1.70;;;16.60;77.10;;;;;;5035875;28;20049;-81
2021/06/13 08:48:48;;;;;;;6.57;1.88;;;16.50;76.50;;;;;;5038468;28;20408;-80
2021/06/13 08:51:14;;;;;;;4.82;1.88;;;16.50;77.20;;;;;;5051043;28;20041;-81
2021/06/13 08:53:46;;;;;;;8.07;2.10;;;16.50;78.00;;;;;;5041662;28;20057;-82
2021/06/13 08:56:16;;;;;;;4.85;1.48;;;16.50;76.90;;;;;;5043838;28;20040;-81
2021/06/13 08:58:43;;;;;;;5.53;1.85;;;16.60;78.10;;;;;;5057319;28;20055;-81
2021/06/13 09:01:10;;;;;;;3.20;1.85;;;16.80;78.40;;;;;;5047985;28;20049;-82
2021/06/13 09:03:37;;;;;;;5.95;1.70;;;16.90;77.00;;;;;;5048519;28;20041;-82
2021/06/13 09:06:02;;;;;;;4.32;1.67;;;17.20;78.40;;;;;;5045372;28;20048;-83
2021/06/13 09:08:41;;;;;;;6.57;1.70;;;17.30;75.20;;;;;;5051482;28;20029;-81
2021/06/13 09:11:09;;;;;;;5.60;1.42;;;17.40;73.70;;;;;;5043874;28;20627;-82
2021/06/13 09:13:37;;;;;;;5.75;1.77;;;17.60;72.60;;;;;;5043524;28;20351;-83
2021/06/13 09:16:06;;;;;;;7.53;1.85;;;17.70;72.20;;;;;;5043775;28;20368;-81
2021/06/13 09:18:39;;;;;;;8.23;1.45;;;17.70;72.00;;;;;;5047203;28;20423;-84
2021/06/13 09:21:26;;;;;;;6.47;1.55;;;17.80;71.80;;;;;;5054443;28;20049;-83
2021/06/13 09:23:51;;;;;;;5.07;1.33;;;17.80;71.60;;;;;;5044241;28;20052;-81
2021/06/13 09:26:19;;;;;;;3.80;1.50;;;17.90;72.70;;;;;;5044290;28;20045;-81
2021/06/13 09:28:50;;;;;;;6.90;1.65;;;18.00;72.10;;;;;;5045225;28;20147;-81
2021/06/13 09:31:21;;;;;;;3.72;1.33;;;18.10;72.70;;;;;;5038538;28;20383;-83
2021/06/13 09:33:49;;;;;;;5.68;1.30;;;18.30;70.20;;;;;;5039055;28;20040;-82
2021/06/13 09:36:20;;;;;;;6.38;2.03;;;18.40;70.00;;;;;;5044439;28;20051;-82
2021/06/13 09:38:47;;;;;;;8.07;1.45;;;18.50;69.10;;;;;;5039067;28;20073;-83
2021/06/13 09:41:18;;;;;;;3.28;1.10;;;18.50;70.70;;;;;;5045583;28;20049;-82
2021/06/13 09:43:56;;;;;;;5.47;1.10;;;18.60;69.40;;;;;;5043016;28;20116;-77
2021/06/13 09:46:24;;;;;;;4.57;1.60;;;18.50;69.00;;;;;;5043717;28;20300;-78
2021/06/13 09:48:51;;;;;;;6.80;1.65;;;18.40;70.00;;;;;;5049145;28;20274;-79
2021/06/13 09:51:32;;;;;;;5.13;1.15;;;18.40;70.40;;;;;;5051295;28;20045;-84
2021/06/13 09:53:58;;;;;;;4.78;1.00;;;18.50;69.90;;;;;;5054107;28;20103;-80
2021/06/13 09:56:37;;;;;;;8.02;1.60;;;18.60;74.40;;;;;;5053878;28;20041;-81
2021/06/13 09:59:17;;;;;;;4.07;1.17;;;18.70;69.70;;;;;;5046618;28;20056;-81
2021/06/13 10:01:48;;;;;;;14.13;1.75;;;18.80;69.20;;;;;;5049012;28;20304;-81
2021/06/13 10:04:17;;;;;;;5.57;1.80;;;18.80;68.10;;;;;;5050477;28;20052;-82
2021/06/13 10:06:42;;;;;;;9.57;1.50;;;18.80;71.20;;;;;;5049395;28;20399;-80
2021/06/13 10:09:08;;;;;;;17.73;1.70;;;18.80;68.30;;;;;;5043015;28;20121;-81
2021/06/13 10:11:37;;;;;;;7.80;1.60;;;18.90;69.60;;;;;;5055153;28;20060;-81
2021/06/13 10:14:14;;;;;;;5.35;1.48;;;19.10;69.10;;;;;;5054449;28;20120;-81
2021/06/13 10:16:51;;;;;;;8.98;2.10;;;19.20;69.70;;;;;;5043254;28;20377;-81
2021/06/13 10:19:19;;;;;;;4.10;1.83;;;19.20;67.80;;;;;;5037353;28;20041;-82
2021/06/13 10:22:12;;;;;;;7.82;1.52;;;19.30;70.10;;;;;;5047307;28;20065;-85
2021/06/13 10:24:41;;;;;;;3.47;0.98;;;19.30;67.80;;;;;;5045041;28;20037;-84
2021/06/13 10:27:12;;;;;;;8.45;2.03;;;19.30;67.90;;;;;;5047712;28;20801;-79
2021/06/13 10:29:41;;;;;;;4.75;1.33;;;19.20;66.00;;;;;;5054570;28;20040;-81
2021/06/13 10:32:23;;;;;;;8.05;1.48;;;19.10;66.10;;;;;;5045389;28;20408;-78
2021/06/13 10:34:50;;;;;;;9.50;1.95;;;19.00;67.00;;;;;;5047203;28;20048;-82
2021/06/13 10:37:16;;;;;;;3.85;1.48;;;18.90;66.80;;;;;;5050366;28;20044;-82
2021/06/13 10:39:42;;;;;;;3.65;1.05;;;18.90;66.20;;;;;;5049285;28;20055;-82
2021/06/13 10:42:13;;;;;;;4.38;1.55;;;18.90;66.80;;;;;;5044523;28;20041;-80
2021/06/13 10:44:50;;;;;;;7.03;1.27;;;18.80;65.30;;;;;;5053733;28;20068;-76
2021/06/13 10:47:17;;;;;;;8.68;1.13;;;18.90;65.20;;;;;;5050248;28;20400;-77
2021/06/13 10:49:46;;;;;;;4.50;1.40;;;18.90;67.10;;;;;;5055469;28;20416;-77
2021/06/13 10:52:20;;;;;;;6.20;1.20;;;18.90;67.30;;;;;;5049874;28;20037;-77
2021/06/13 10:54:49;;;;;;;2.55;1.40;;;19.00;67.50;;;;;;5052977;28;20032;-79
2021/06/13 10:57:14;;;;;;;4.95;1.38;;;19.10;65.40;;;;;;5043323;28;20472;-80
2021/06/13 10:59:51;;;;;;;4.35;1.40;;;19.10;66.20;;;;;;5042677;28;20140;-83
2021/06/13 11:02:21;;;;;;;2.53;1.60;;;19.00;65.10;;;;;;5055615;28;20099;-83
2021/06/13 11:05:04;;;;;;;4.45;1.20;;;19.00;65.60;;;;;;5059115;28;20041;-82
2021/06/13 11:07:29;;;;;;;5.97;1.30;;;19.00;67.30;;;;;;5063378;28;20490;-84
2021/06/13 11:10:08;;;;;;;4.50;2.40;;;18.90;66.20;;;;;;5038790;28;20065;-79
2021/06/13 11:13:00;;;;;;;5.07;1.65;;;18.80;66.90;;;;;;5046176;28;20040;-80
2021/06/13 11:15:31;;;;;;;2.72;1.20;;;18.80;67.80;;;;;;5051815;28;20045;-81
2021/06/13 11:18:14;;;;;;;4.23;1.33;;;18.90;67.90;;;;;;5046313;28;20041;-79
2021/06/13 11:20:54;;;;;;;8.40;1.73;;;19.00;68.40;;;;;;5046995;28;20037;-77
2021/06/13 11:23:25;;;;;;;4.00;1.63;;;19.10;66.80;;;;;;5037979;28;20052;-82
2021/06/13 11:25:57;;;;;;;4.63;1.60;;;19.20;66.30;;;;;;5054811;28;20091;-81
2021/06/13 11:28:27;;;;;;;7.25;3.05;;;19.50;65.30;;;;;;5047903;28;20045;-80
2021/06/13 11:30:56;;;;;;;5.80;2.78;;;19.60;64.50;;;;;;5044360;28;20371;-85
2021/06/13 11:33:49;;;;;;;4.45;1.50;;;19.70;64.50;;;;;;5046575;28;20037;-82
2021/06/13 11:36:18;;;;;;;8.43;1.55;;;19.70;66.00;;;;;;5050342;28;20052;-83
2021/06/13 11:38:48;;;;;;;3.38;1.73;;;19.60;65.10;;;;;;5038364;28;20045;-82
2021/06/13 11:41:26;;;;;;;6.03;2.20;;;19.50;64.90;;;;;;5045228;28;20072;-82
2021/06/13 11:43:51;;;;;;;5.10;1.92;;;19.30;66.30;;;;;;5047943;28;20111;-82
2021/06/13 11:46:34;;;;;;;5.45;1.80;;;19.10;65.80;;;;;;5043034;28;20040;-82
2021/06/13 11:49:02;;;;;;;10.00;2.05;;;19.00;67.20;;;;;;5039456;28;20285;-84
2021/06/13 11:51:28;;;;;;;3.50;1.60;;;18.90;67.00;;;;;;5039952;28;20061;-84
2021/06/13 11:54:01;;;;;;;5.45;1.90;;;18.90;68.10;;;;;;5038863;28;20136;-83
2021/06/13 11:56:36;;;;;;;4.00;1.80;;;19.00;68.20;;;;;;5039126;28;20041;-82
2021/06/13 11:59:08;;;;;;;7.22;1.60;;;19.20;67.20;;;;;;5039479;28;20097;-81
2021/06/13 12:01:36;;;;;;;9.38;2.10;;;19.50;65.80;;;;;;5039453;28;20045;-82
2021/06/13 12:04:05;;;;;;;4.40;1.52;;;19.60;66.00;;;;;;5039753;28;20166;-81
2021/06/13 12:06:35;;;;;;;4.55;1.63;;;19.60;65.50;;;;;;5042739;28;20044;-82
2021/06/13 12:09:06;;;;;;;4.35;1.50;;;19.70;66.80;;;;;;5039482;28;20059;-81
2021/06/13 12:11:41;;;;;;;5.47;1.83;;;19.70;65.40;;;;;;5037949;28;20152;-81
2021/06/13 12:14:43;;;;;;;4.68;1.55;;;19.70;65.00;;;;;;5038475;28;20083;-81
2021/06/13 12:17:22;;;;;;;6.10;1.60;;;19.70;65.60;;;;;;5040902;28;20404;-81
2021/06/13 12:19:55;;;;;;;3.13;1.50;;;19.80;65.40;;;;;;5051156;28;20041;-82
2021/06/13 12:22:29;;;;;;;4.15;2.00;;;19.80;66.40;;;;;;5037398;28;20132;-83
2021/06/13 12:27:49;;;;;;;4.28;1.58;;;20.00;65.80;;;;;;5026178;28;20037;-81
2021/06/13 12:30:19;;;;;;;6.78;1.95;;;20.10;66.90;;;;;;5039394;28;20045;-77
2021/06/13 12:32:55;;;;;;;3.80;1.58;;;20.20;66.90;;;;;;5045772;28;20041;-78
2021/06/13 12:35:24;;;;;;;4.15;1.70;;;20.30;66.60;;;;;;5035236;28;20294;-77
2021/06/13 12:38:00;;;;;;;4.32;1.48;;;20.50;65.80;;;;;;5035477;28;20045;-78
2021/06/13 12:40:26;;;;;;;4.22;1.30;;;20.70;63.10;;;;;;5037443;28;20076;-80
2021/06/13 12:42:52;;;;;;;3.95;1.80;;;20.90;63.60;;;;;;5046500;28;20049;-84
2021/06/13 12:45:19;;;;;;;5.70;1.70;;;20.90;61.60;;;;;;5042617;28;20048;-86
2021/06/13 12:47:48;;;;;;;5.10;2.35;;;20.90;62.80;;;;;;5049717;28;20474;-79
2021/06/13 12:50:23;;;;;;;9.27;2.45;;;20.90;62.50;;;;;;5039405;28;20039;-81
2021/06/13 12:52:50;;;;;;;3.47;1.92;;;20.80;62.60;;;;;;5045848;28;20395;-82
2021/06/13 12:55:16;;;;;;;6.03;1.85;;;20.80;62.60;;;;;;5048181;28;20110;-81
2021/06/13 12:57:45;;;;;;;5.82;2.28;;;20.70;62.20;;;;;;5045328;28;20343;-81